Time;durP1;ratioP1;P1;durP2;ratioP2;P2;SDS_P1;SDS_P2;PMS_P1;PMS_P2;Temp;Humidity;BMP_temperature;BMP_pressure;BME280_temperature;BME280_humidity;BME280_pressure;Samples;Min_cycle;Max_cycle;Signal;HPM_P1;HPM_P2
2021/09/16 00:03:14;;;;;;;8.57;4.97;;;;;;;14.92;85.00;100193.28;8546841;34;20142;-72
2021/09/16 00:08:17;;;;;;;8.07;4.60;;;;;;;14.93;85.21;100194.13;8546932;34;20230;-72
2021/09/16 00:13:20;;;;;;;6.68;3.65;;;;;;;14.87;83.87;100200.16;8546281;34;20202;-71
2021/09/16 00:18:25;;;;;;;5.45;3.65;;;;;;;14.68;83.09;100209.28;8546248;34;20465;-71
2021/09/16 00:23:28;;;;;;;5.68;4.20;;;;;;;14.61;82.79;100214.44;8546506;34;20289;-71
2021/09/16 00:28:31;;;;;;;6.05;4.20;;;;;;;14.44;82.18;100209.91;8546213;34;20599;-71
2021/09/16 00:33:36;;;;;;;7.32;3.92;;;;;;;14.54;82.03;100208.81;8546160;34;20188;-73
2021/09/16 00:38:39;;;;;;;6.50;4.18;;;;;;;14.57;81.69;100218.47;8546275;34;20181;-72
2021/09/16 00:43:42;;;;;;;6.15;3.75;;;;;;;14.52;82.21;100216.22;8546120;34;20252;-72
2021/09/16 00:48:47;;;;;;;7.63;4.15;;;;;;;14.60;82.00;100213.59;8545814;34;21703;-72
2021/09/16 00:53:52;;;;;;;4.57;3.55;;;;;;;14.69;82.65;100217.22;8546506;34;20217;-72
2021/09/16 00:58:57;;;;;;;5.93;3.67;;;;;;;14.43;81.51;100221.72;8546360;34;20234;-71
2021/09/16 01:04:02;;;;;;;5.30;3.25;;;;;;;14.42;81.17;100220.84;8545594;34;20696;-71
2021/09/16 01:09:05;;;;;;;9.25;3.30;;;;;;;14.37;81.24;100229.41;8545751;34;20284;-72
2021/09/16 01:14:08;;;;;;;4.32;2.83;;;;;;;14.31;81.45;100231.84;8544964;34;20675;-73
2021/09/16 01:19:13;;;;;;;3.35;2.70;;;;;;;14.27;81.99;100231.31;8545405;34;20270;-72
2021/09/16 01:24:18;;;;;;;2.90;2.33;;;;;;;14.04;81.09;100232.72;8542333;34;20192;-72
2021/09/16 01:29:21;;;;;;;3.40;2.17;;;;;;;14.07;80.83;100232.41;8543867;34;20257;-72
2021/09/16 01:34:24;;;;;;;2.90;1.77;;;;;;;13.83;80.85;100236.53;8548495;34;20213;-72
2021/09/16 01:39:28;;;;;;;4.40;1.85;;;;;;;13.76;78.79;100245.38;8545322;34;20190;-72
2021/09/16 01:44:33;;;;;;;4.28;1.80;;;;;;;13.79;79.07;100237.81;8543784;34;20166;-72
2021/09/16 01:49:36;;;;;;;3.58;1.90;;;;;;;13.64;78.82;100240.16;8544310;34;20698;-72
2021/09/16 01:54:41;;;;;;;5.63;1.88;;;;;;;13.72;79.22;100247.50;8544196;34;20213;-72
2021/09/16 01:59:44;;;;;;;3.08;2.33;;;;;;;13.96;79.17;100254.22;8545040;34;20229;-73
2021/09/16 02:04:47;;;;;;;4.28;2.10;;;;;;;13.69;79.57;100258.63;8545383;34;20243;-72
2021/09/16 02:09:51;;;;;;;5.15;2.20;;;;;;;13.70;79.91;100263.84;8543680;34;20190;-72
2021/09/16 02:14:54;;;;;;;4.18;1.73;;;;;;;13.58;78.80;100264.19;8543789;34;20245;-72
2021/09/16 02:19:57;;;;;;;6.15;2.13;;;;;;;13.55;78.48;100265.34;8543853;34;20238;-72
2021/09/16 02:25:02;;;;;;;3.70;1.60;;;;;;;13.54;77.99;100270.88;8543341;34;20150;-72
2021/09/16 02:30:07;;;;;;;2.38;1.30;;;;;;;13.45;78.07;100273.44;8543824;34;20336;-72
2021/09/16 02:35:12;;;;;;;2.85;1.55;;;;;;;13.43;77.84;100280.81;8545606;34;20193;-72
2021/09/16 02:40:16;;;;;;;1.33;1.23;;;;;;;13.40;77.41;100282.97;8548755;34;20184;-72
2021/09/16 02:45:20;;;;;;;1.98;1.23;;;;;;;13.55;77.16;100277.94;8547788;34;20182;-72
2021/09/16 02:50:23;;;;;;;5.88;1.80;;;;;;;13.31;76.98;100273.88;8548302;34;20240;-72
2021/09/16 02:55:28;;;;;;;4.72;1.50;;;;;;;13.29;76.57;100286.66;8548042;34;20221;-72
2021/09/16 03:00:31;;;;;;;3.88;1.10;;;;;;;13.39;76.52;100294.78;8547755;34;20192;-72
2021/09/16 03:05:34;;;;;;;1.77;1.23;;;;;;;13.53;76.17;100286.22;8547482;34;20438;-73
2021/09/16 03:10:39;;;;;;;2.95;1.40;;;;;;;13.50;75.95;100289.22;8547870;34;20779;-72
2021/09/16 03:15:42;;;;;;;2.97;1.20;;;;;;;13.47;75.92;100293.03;8546995;34;20296;-72
2021/09/16 03:20:45;;;;;;;3.20;2.08;;;;;;;13.42;75.96;100303.41;8548387;34;20251;-72
2021/09/16 03:25:49;;;;;;;1.70;1.10;;;;;;;13.42;75.33;100308.81;8546786;34;20533;-72
2021/09/16 03:30:53;;;;;;;1.70;1.10;;;;;;;13.45;74.91;100303.13;8547166;34;20257;-72
2021/09/16 03:35:56;;;;;;;4.47;1.20;;;;;;;13.27;75.44;100304.81;8547197;34;20189;-71
2021/09/16 03:41:01;;;;;;;2.22;1.00;;;;;;;13.40;75.01;100307.25;8546966;34;20186;-72
2021/09/16 03:46:04;;;;;;;2.05;1.40;;;;;;;13.14;74.91;100315.91;8545522;34;20150;-72
2021/09/16 03:51:07;;;;;;;2.15;0.93;;;;;;;13.32;74.12;100318.72;8546672;34;20288;-71
2021/09/16 03:56:11;;;;;;;2.08;1.00;;;;;;;12.96;74.69;100310.38;8545780;34;20244;-72
2021/09/16 04:01:14;;;;;;;1.98;1.33;;;;;;;13.33;73.25;100306.09;8547329;34;21492;-71
2021/09/16 04:06:18;;;;;;;2.53;1.50;;;;;;;13.12;74.42;100307.13;8545709;34;20764;-71
2021/09/16 04:11:22;;;;;;;1.65;1.30;;;;;;;12.90;74.98;100302.00;8546655;34;21588;-71
2021/09/16 04:16:25;;;;;;;2.67;1.30;;;;;;;13.07;74.61;100311.22;8545708;34;20149;-72
2021/09/16 04:21:28;;;;;;;3.03;1.33;;;;;;;12.89;75.68;100311.94;8546055;34;20186;-71
2021/09/16 04:26:33;;;;;;;2.08;1.10;;;;;;;12.68;75.85;100303.13;8545456;34;20189;-71
2021/09/16 04:31:36;;;;;;;1.90;1.20;;;;;;;13.00;75.34;100308.22;8545984;34;20286;-71
2021/09/16 04:36:39;;;;;;;2.45;1.30;;;;;;;13.09;75.00;100309.25;8545037;34;20517;-71
2021/09/16 04:41:44;;;;;;;3.88;1.42;;;;;;;12.93;75.71;100302.56;8545535;34;20157;-71
2021/09/16 04:46:47;;;;;;;3.45;1.30;;;;;;;12.90;75.41;100307.41;8545121;34;20221;-71
2021/09/16 04:51:50;;;;;;;2.75;1.20;;;;;;;12.79;75.86;100301.16;8545852;34;20194;-71
2021/09/16 04:56:55;;;;;;;3.00;1.77;;;;;;;12.92;75.84;100310.81;8543937;34;20581;-70
2021/09/16 05:01:58;;;;;;;7.03;1.80;;;;;;;12.93;76.37;100320.59;8544962;34;20661;-71
2021/09/16 05:07:01;;;;;;;2.90;1.58;;;;;;;12.89;76.27;100321.84;8545023;34;20305;-72
2021/09/16 05:12:06;;;;;;;4.60;2.50;;;;;;;12.60;76.87;100328.91;8543874;34;20856;-72
2021/09/16 05:17:09;;;;;;;2.55;1.48;;;;;;;12.74;76.70;100326.81;8544723;34;20150;-72
2021/09/16 05:22:12;;;;;;;2.45;1.92;;;;;;;12.95;76.29;100338.34;8545756;34;20245;-72
2021/09/16 05:27:19;;;;;;;2.47;1.80;;;;;;;12.97;76.08;100333.66;8543827;34;20640;-71
2021/09/16 05:32:22;;;;;;;2.47;1.70;;;;;;;12.83;76.64;100326.84;8543623;34;20664;-72
2021/09/16 05:37:26;;;;;;;2.78;1.73;;;;;;;12.82;77.04;100333.22;8543893;34;20486;-72
2021/09/16 05:42:32;;;;;;;4.55;2.35;;;;;;;12.87;77.25;100334.66;8542698;34;20134;-72
2021/09/16 05:47:35;;;;;;;3.17;2.08;;;;;;;12.82;77.50;100338.59;8544432;34;20281;-72
2021/09/16 05:52:39;;;;;;;4.20;2.22;;;;;;;12.51;78.20;100335.16;8546678;34;20208;-72
2021/09/16 05:57:43;;;;;;;5.32;2.97;;;;;;;12.76;77.67;100343.72;8543122;34;20190;-70
2021/09/16 06:02:47;;;;;;;3.85;2.70;;;;;;;12.78;77.27;100344.41;8543429;34;20147;-71
2021/09/16 06:07:50;;;;;;;3.63;2.20;;;;;;;12.73;77.83;100344.84;8544617;34;20217;-71
2021/09/16 06:12:54;;;;;;;4.03;2.38;;;;;;;12.78;77.86;100345.28;8550557;34;20247;-72
2021/09/16 06:17:57;;;;;;;3.08;2.38;;;;;;;12.80;77.89;100342.44;8553420;34;20177;-72
2021/09/16 06:23:00;;;;;;;9.75;3.45;;;;;;;12.92;77.38;100351.25;8554056;34;20150;-73
2021/09/16 06:28:05;;;;;;;4.57;3.15;;;;;;;12.87;77.64;100367.84;8552083;33;20161;-71
2021/09/16 06:33:08;;;;;;;5.15;2.67;;;;;;;12.95;77.63;100367.16;8547695;33;20519;-72
2021/09/16 06:38:11;;;;;;;4.93;3.40;;;;;;;12.86;77.98;100365.28;8550682;33;21390;-72
2021/09/16 06:43:16;;;;;;;4.32;2.70;;;;;;;12.89;77.66;100356.91;8550952;33;20434;-72
2021/09/16 06:48:19;;;;;;;6.18;2.45;;;;;;;12.87;78.53;100362.44;8551920;33;20181;-72
2021/09/16 06:53:22;;;;;;;5.68;2.53;;;;;;;13.00;77.80;100368.44;8550707;33;20186;-72
2021/09/16 06:58:26;;;;;;;7.35;2.47;;;;;;;13.02;77.47;100373.66;8541648;34;20742;-73
2021/09/16 07:03:29;;;;;;;6.70;2.78;;;;;;;12.98;77.97;100374.94;8551592;34;20186;-72
2021/09/16 07:08:33;;;;;;;5.40;2.53;;;;;;;13.13;77.60;100378.06;8551403;34;20717;-72
2021/09/16 07:13:37;;;;;;;4.75;2.85;;;;;;;13.14;78.02;100386.03;8551805;34;20186;-72
2021/09/16 07:18:40;;;;;;;5.50;3.15;;;;;;;12.77;80.22;100378.59;8550487;34;20255;-72
2021/09/16 07:23:43;;;;;;;7.55;4.13;;;;;;;12.52;82.59;100390.72;8546775;34;20672;-72
2021/09/16 07:29:00;;;;;;;4.88;2.88;;;;;;;12.33;84.31;100396.03;8544533;33;20192;-72
2021/09/16 07:34:03;;;;;;;6.30;3.22;;;;;;;12.22;86.99;100393.41;8545982;34;20193;-73
2021/09/16 07:39:06;;;;;;;5.35;3.80;;;;;;;12.17;87.27;100400.03;8545594;33;20264;-73
2021/09/16 07:44:11;;;;;;;5.10;3.85;;;;;;;12.36;88.26;100398.47;8546305;33;20343;-73
2021/09/16 07:49:14;;;;;;;7.05;3.92;;;;;;;12.40;88.58;100402.59;8544567;34;20185;-73
2021/09/16 07:54:17;;;;;;;8.30;4.20;;;;;;;12.82;87.65;100395.22;8543467;34;20593;-73
2021/09/16 07:59:22;;;;;;;5.82;4.28;;;;;;;12.81;86.62;100404.28;8545829;34;20491;-73
2021/09/16 08:04:25;;;;;;;9.68;4.13;;;;;;;12.70;86.50;100409.81;8545421;34;20185;-73
2021/09/16 08:09:28;;;;;;;7.28;4.70;;;;;;;12.76;86.97;100419.19;8546269;34;20194;-73
2021/09/16 08:14:32;;;;;;;8.90;5.13;;;;;;;13.04;83.67;100404.03;8545559;34;20197;-73
2021/09/16 08:19:39;;;;;;;10.80;5.13;;;;;;;13.00;85.09;100408.00;8545866;34;20205;-73
2021/09/16 08:24:43;;;;;;;8.57;5.68;;;;;;;13.32;84.90;100410.44;8545606;34;21095;-73
2021/09/16 08:29:47;;;;;;;8.13;5.53;;;;;;;13.17;83.96;100423.50;8545527;34;20186;-74
2021/09/16 08:34:50;;;;;;;9.27;6.13;;;;;;;13.44;83.98;100417.47;8544623;34;20908;-73
2021/09/16 08:39:53;;;;;;;6.97;5.32;;;;;;;13.44;82.57;100427.41;8545316;34;20200;-74
2021/09/16 08:44:58;;;;;;;9.70;6.28;;;;;;;13.61;83.49;100423.13;8544654;34;20146;-73
2021/09/16 08:50:01;;;;;;;8.52;5.30;;;;;;;14.08;80.54;100417.78;8545064;34;20667;-73
2021/09/16 08:55:05;;;;;;;7.72;5.10;;;;;;;14.41;80.27;100418.28;8545075;34;20436;-73
2021/09/16 09:00:14;;;;;;;9.07;5.57;;;;;;;14.49;78.56;100431.91;8544237;34;20178;-73
2021/09/16 09:05:18;;;;;;;9.32;5.78;;;;;;;14.68;78.41;100422.84;8542797;34;20186;-73
2021/09/16 09:10:43;;;;;;;10.90;5.28;;;;;;;13.97;79.56;100440.41;8544590;34;20706;-72
2021/09/16 09:15:58;;;;;;;8.73;5.97;;;;;;;13.72;79.41;100444.56;8538056;34;20549;-72
2021/09/16 09:21:05;;;;;;;8.93;5.68;;;;;;;13.94;78.58;100446.09;8543848;34;20185;-73
2021/09/16 09:26:25;;;;;;;9.52;5.70;;;;;;;13.66;80.14;100450.56;8544231;34;20285;-73
2021/09/16 09:31:30;;;;;;;10.63;6.55;;;;;;;14.04;79.46;100435.28;8547948;34;20185;-73
2021/09/16 09:36:39;;;;;;;7.20;5.63;;;;;;;14.68;77.12;100431.81;8545132;34;20151;-74
2021/09/16 09:41:42;;;;;;;7.03;5.07;;;;;;;15.02;76.78;100431.19;8544643;34;20224;-73
2021/09/16 09:46:50;;;;;;;9.70;5.72;;;;;;;15.90;73.50;100431.34;8543178;33;20158;-73
2021/09/16 09:51:56;;;;;;;9.20;5.03;;;;;;;16.07;70.90;100430.47;8523515;33;20134;-73
2021/09/16 09:57:05;;;;;;;6.75;5.07;;;;;;;16.62;68.82;100445.56;8487107;34;20214;-73
2021/09/16 10:02:09;;;;;;;8.38;4.82;;;;;;;17.35;69.60;100444.97;8487782;34;20210;-74
2021/09/16 10:07:31;;;;;;;6.72;4.93;;;;;;;16.90;68.13;100443.47;8487134;34;20175;-74
2021/09/16 10:12:36;;;;;;;11.50;4.97;;;;;;;15.90;70.55;100458.44;8489041;34;20233;-75
2021/09/16 10:17:41;;;;;;;8.07;4.15;;;;;;;15.88;71.03;100442.38;8487678;34;20533;-74
2021/09/16 10:22:47;;;;;;;5.80;4.03;;;;;;;16.31;69.63;100437.91;8487629;34;20943;-73
2021/09/16 10:28:00;;;;;;;8.07;4.25;;;;;;;16.29;69.49;100439.09;8488005;34;20226;-74
2021/09/16 10:33:11;;;;;;;6.82;4.25;;;;;;;15.89;70.39;100449.47;8488776;34;20186;-73
2021/09/16 10:38:29;;;;;;;6.45;4.00;;;;;;;15.65;72.36;100451.97;8488505;34;20218;-73
2021/09/16 10:43:32;;;;;;;9.18;4.43;;;;;;;15.39;72.84;100446.50;8487161;34;20328;-73
2021/09/16 10:48:36;;;;;;;6.10;4.07;;;;;;;15.51;73.38;100441.69;8486573;34;20191;-73
2021/09/16 10:53:44;;;;;;;4.70;3.60;;;;;;;16.12;69.75;100449.78;8486698;34;20151;-75
2021/09/16 10:58:53;;;;;;;6.10;3.30;;;;;;;15.66;70.71;100451.81;8491209;34;20797;-74
2021/09/16 11:04:01;;;;;;;5.32;2.75;;;;;;;15.92;69.96;100448.31;8491839;34;20652;-73
2021/09/16 11:09:05;;;;;;;6.57;3.42;;;;;;;15.96;70.71;100444.25;8491626;34;20754;-73
2021/09/16 11:14:09;;;;;;;5.97;3.97;;;;;;;15.50;71.99;100448.13;8490460;34;20256;-73
2021/09/16 11:19:13;;;;;;;6.22;3.70;;;;;;;15.67;72.39;100445.41;8491073;34;21490;-73
2021/09/16 11:24:16;;;;;;;6.38;4.25;;;;;;;15.82;71.46;100440.25;8490866;34;20509;-72
2021/09/16 11:29:19;;;;;;;7.00;4.05;;;;;;;15.84;71.22;100443.66;8544452;34;20142;-73
2021/09/16 11:34:24;;;;;;;6.80;3.90;;;;;;;16.35;69.18;100443.88;8547581;34;20189;-73
2021/09/16 11:39:27;;;;;;;5.63;3.67;;;;;;;16.66;68.58;100438.78;8545171;33;21020;-73
2021/09/16 11:44:30;;;;;;;6.65;4.15;;;;;;;17.10;67.66;100426.91;8540802;33;20450;-73
2021/09/16 11:49:35;;;;;;;6.28;4.32;;;;;;;16.34;69.33;100434.88;8546019;33;20596;-72
2021/09/16 11:54:38;;;;;;;4.90;3.17;;;;;;;16.23;70.02;100437.84;8566482;33;20182;-73
2021/09/16 11:59:41;;;;;;;6.82;3.95;;;;;;;15.47;72.64;100441.16;8567248;33;20177;-72
2021/09/16 12:04:45;;;;;;;6.57;4.55;;;;;;;15.20;75.18;100432.06;8545822;33;20329;-73
2021/09/16 12:09:48;;;;;;;5.20;3.78;;;;;;;15.09;77.03;100434.16;8545924;33;20245;-72
2021/09/16 12:14:52;;;;;;;6.68;4.47;;;;;;;14.60;79.97;100434.41;8545995;33;20197;-73
2021/09/16 12:19:57;;;;;;;6.22;4.57;;;;;;;14.71;81.37;100446.88;8567076;33;20244;-73
2021/09/16 12:25:01;;;;;;;7.57;4.60;;;;;;;14.76;81.98;100440.03;8545676;33;21797;-73
2021/09/16 12:30:15;;;;;;;5.93;4.30;;;;;;;14.81;80.72;100442.28;8546016;33;20328;-72
2021/09/16 12:35:19;;;;;;;7.35;4.53;;;;;;;14.71;81.56;100439.63;8545566;33;20336;-73
2021/09/16 12:40:26;;;;;;;7.88;4.70;;;;;;;14.69;82.17;100440.78;8545740;33;20154;-72
2021/09/16 12:45:30;;;;;;;6.10;4.35;;;;;;;14.83;82.17;100434.84;8545682;33;20181;-73
2021/09/16 12:50:35;;;;;;;6.90;4.80;;;;;;;15.13;81.27;100430.13;8546502;33;21092;-73
2021/09/16 12:55:38;;;;;;;5.88;4.80;;;;;;;15.25;80.70;100435.16;8545034;33;20249;-72
2021/09/16 13:00:41;;;;;;;7.57;4.60;;;;;;;15.75;79.66;100425.66;8543894;34;20196;-72
2021/09/16 13:05:46;;;;;;;5.45;3.75;;;;;;;16.20;76.63;100421.06;8543767;33;20579;-72
2021/09/16 13:10:51;;;;;;;5.07;3.60;;;;;;;17.00;75.56;100422.47;8543839;33;21656;-72
2021/09/16 13:15:55;;;;;;;4.80;3.70;;;;;;;17.00;72.52;100417.06;8543082;33;20682;-72
2021/09/16 13:21:05;;;;;;;5.00;4.38;;;;;;;17.55;72.40;100404.78;8543513;33;21854;-72
2021/09/16 13:26:08;;;;;;;6.63;4.28;;;;;;;19.73;66.13;100400.69;8535644;33;20383;-72
2021/09/16 13:31:11;;;;;;;5.78;3.50;;;;;;;19.95;62.04;100390.78;8545172;33;20570;-73
2021/09/16 13:36:16;;;;;;;3.08;2.60;;;;;;;17.64;68.66;100397.47;8542537;33;20884;-73
2021/09/16 13:41:20;;;;;;;6.10;2.50;;;;;;;16.35;71.89;100406.78;8542334;33;20452;-73
2021/09/16 13:46:24;;;;;;;2.63;2.38;;;;;;;16.45;73.17;100409.34;8541912;33;20179;-73
2021/09/16 13:51:28;;;;;;;4.18;2.55;;;;;;;15.96;74.47;100400.06;8539329;33;20186;-73
2021/09/16 13:56:31;;;;;;;4.45;3.15;;;;;;;15.87;75.23;100399.16;8541837;33;20178;-73
2021/09/16 14:01:34;;;;;;;3.50;2.67;;;;;;;15.73;76.27;100402.44;8541887;33;20275;-73
2021/09/16 14:06:40;;;;;;;5.82;2.90;;;;;;;15.69;77.06;100410.06;8541315;33;20245;-73
2021/09/16 14:11:43;;;;;;;3.55;3.10;;;;;;;15.75;77.04;100411.28;8543012;33;20217;-73
2021/09/16 14:16:46;;;;;;;3.58;3.28;;;;;;;15.66;77.89;100397.69;8543441;34;20192;-72
2021/09/16 14:21:50;;;;;;;6.75;3.33;;;;;;;15.78;78.30;100408.25;8544218;33;20583;-72
2021/09/16 14:26:54;;;;;;;4.60;2.80;;;;;;;16.19;76.43;100403.09;8542104;33;20208;-72
2021/09/16 14:31:57;;;;;;;6.47;2.72;;;;;;;17.15;73.68;100401.00;8546576;33;20260;-72
2021/09/16 14:37:02;;;;;;;3.53;2.42;;;;;;;18.98;66.71;100386.75;8547184;33;20289;-73
2021/09/16 14:42:05;;;;;;;3.85;2.28;;;;;;;20.02;61.62;100386.25;8546950;33;20454;-72
2021/09/16 14:47:08;;;;;;;4.10;2.45;;;;;;;18.29;65.41;100397.41;8548276;34;20772;-73
2021/09/16 14:52:13;;;;;;;3.28;2.10;;;;;;;17.47;68.92;100385.75;8548146;34;20221;-72
2021/09/16 14:57:16;;;;;;;3.85;2.10;;;;;;;17.02;71.05;100385.16;8544602;33;20438;-73
2021/09/16 15:02:20;;;;;;;2.38;2.00;;;;;;;16.67;72.60;100390.81;8550207;33;20177;-73
2021/09/16 15:07:24;;;;;;;3.22;2.33;;;;;;;16.46;73.03;100394.81;8547603;33;20201;-72
2021/09/16 15:12:28;;;;;;;2.90;2.40;;;;;;;16.73;72.58;100403.72;8546467;33;20968;-73
2021/09/16 15:17:31;;;;;;;3.42;1.70;;;;;;;16.48;73.66;100400.94;8546479;33;20218;-72
2021/09/16 15:22:35;;;;;;;1.67;1.42;;;;;;;16.86;69.26;100397.81;8546684;33;20576;-72
2021/09/16 15:27:40;;;;;;;1.52;1.20;;;;;;;16.73;66.81;100396.44;8542992;34;20241;-73
2021/09/16 15:32:43;;;;;;;3.63;1.50;;;;;;;16.99;65.92;100398.22;8547160;34;20217;-73
2021/09/16 15:37:47;;;;;;;4.68;2.03;;;;;;;16.98;65.41;100401.94;8544755;33;20288;-71
2021/09/16 15:42:50;;;;;;;3.42;1.70;;;;;;;16.96;66.35;100409.41;8545060;34;20192;-73
2021/09/16 15:47:54;;;;;;;6.30;1.73;;;;;;;17.05;65.96;100405.69;8551529;33;20146;-71
2021/09/16 15:53:00;;;;;;;2.17;1.30;;;;;;;16.90;66.62;100412.78;8546102;33;20778;-73
2021/09/16 15:58:04;;;;;;;3.83;1.50;;;;;;;16.94;67.01;100411.41;8544566;33;20223;-73
2021/09/16 16:03:07;;;;;;;2.53;1.60;;;;;;;16.90;67.35;100415.50;8546192;33;20241;-73
2021/09/16 16:08:12;;;;;;;2.03;1.45;;;;;;;16.94;66.74;100425.81;8544007;33;20182;-73
2021/09/16 16:13:17;;;;;;;2.30;1.48;;;;;;;16.84;67.12;100430.56;8547500;33;20147;-73
2021/09/16 16:18:20;;;;;;;4.90;1.80;;;;;;;16.69;67.27;100418.63;8547718;33;20297;-73
2021/09/16 16:23:25;;;;;;;2.70;2.17;;;;;;;16.63;68.17;100420.13;8539320;33;20504;-71
2021/09/16 16:28:29;;;;;;;1.98;1.67;;;;;;;16.57;67.51;100421.63;8548381;34;20186;-72
2021/09/16 16:33:32;;;;;;;4.45;2.00;;;;;;;16.64;67.03;100426.41;8546243;34;20624;-73
2021/09/16 16:38:37;;;;;;;2.53;1.30;;;;;;;16.51;66.27;100425.00;8544515;34;20720;-73
2021/09/16 16:43:40;;;;;;;2.95;1.20;;;;;;;16.54;66.26;100432.81;8545163;34;20192;-72
2021/09/16 16:48:44;;;;;;;3.03;2.17;;;;;;;16.25;67.10;100435.81;8545146;34;20616;-73
2021/09/16 16:53:49;;;;;;;3.53;1.48;;;;;;;16.14;67.32;100431.53;8544613;34;20193;-72
2021/09/16 16:58:52;;;;;;;3.72;1.60;;;;;;;16.19;68.09;100430.22;8544223;34;20639;-72
2021/09/16 17:03:55;;;;;;;6.75;2.03;;;;;;;16.07;68.70;100440.44;8544294;33;20212;-73
2021/09/16 17:09:00;;;;;;;4.50;1.73;;;;;;;16.09;68.17;100446.56;8544940;34;20186;-72
2021/09/16 17:14:04;;;;;;;3.20;2.22;;;;;;;16.12;68.17;100441.66;8543592;34;20161;-72
2021/09/16 17:19:07;;;;;;;5.60;2.42;;;;;;;16.06;68.71;100449.59;8542153;34;20193;-72
2021/09/16 17:24:11;;;;;;;3.25;1.80;;;;;;;15.73;70.14;100452.03;8543171;33;20549;-72
2021/09/16 17:29:15;;;;;;;4.07;2.00;;;;;;;15.78;69.65;100435.34;8490367;34;20233;-72
2021/09/16 17:34:18;;;;;;;4.70;1.90;;;;;;;15.69;70.17;100451.50;8524327;33;20158;-72
2021/09/16 17:39:23;;;;;;;2.50;2.28;;;;;;;15.63;70.34;100449.44;8542500;33;20190;-72
2021/09/16 17:44:26;;;;;;;4.28;2.28;;;;;;;15.62;70.57;100450.41;8541515;33;20229;-72
2021/09/16 17:49:33;;;;;;;5.68;2.33;;;;;;;15.47;71.19;100447.44;8541959;33;20150;-72
2021/09/16 17:54:38;;;;;;;4.18;2.42;;;;;;;15.49;71.29;100455.38;8538039;33;20194;-72
2021/09/16 17:59:41;;;;;;;5.43;2.40;;;;;;;15.30;71.78;100456.34;8543089;34;20189;-72
2021/09/16 18:04:44;;;;;;;3.55;2.15;;;;;;;15.26;71.07;100458.50;8542848;34;20556;-72
2021/09/16 18:09:48;;;;;;;4.00;1.67;;;;;;;15.33;70.65;100455.19;8544171;34;20588;-72
2021/09/16 18:14:52;;;;;;;2.85;1.70;;;;;;;14.94;71.69;100469.81;8542799;34;20177;-71
2021/09/16 18:19:55;;;;;;;3.88;1.83;;;;;;;15.06;71.20;100465.06;8543125;34;20244;-71
2021/09/16 18:25:00;;;;;;;8.38;2.38;;;;;;;15.20;70.69;100467.25;8542700;34;20288;-72
2021/09/16 18:30:04;;;;;;;6.28;2.00;;;;;;;15.10;70.98;100482.69;8542834;33;21396;-72
2021/09/16 18:35:09;;;;;;;3.15;1.85;;;;;;;15.04;70.84;100477.88;8532382;33;20192;-73
2021/09/16 18:40:16;;;;;;;4.45;2.25;;;;;;;14.87;71.68;100484.09;8543633;33;20178;-72
2021/09/16 18:45:20;;;;;;;3.67;2.80;;;;;;;14.71;72.36;100488.28;8540644;34;21908;-72
2021/09/16 18:50:26;;;;;;;4.32;2.33;;;;;;;14.53;72.99;100501.72;8542309;34;20235;-72
2021/09/16 18:55:31;;;;;;;2.35;2.15;;;;;;;14.41;73.52;100496.66;8542412;33;20130;-72
2021/09/16 19:00:35;;;;;;;3.80;2.50;;;;;;;14.64;72.74;100507.94;8542544;33;20151;-71
2021/09/16 19:05:40;;;;;;;5.15;2.65;;;;;;;14.57;73.30;100513.94;8541223;33;20289;-71
2021/09/16 19:10:45;;;;;;;3.80;2.42;;;;;;;14.48;73.65;100513.97;8542621;33;20565;-71
2021/09/16 19:15:49;;;;;;;2.63;2.25;;;;;;;14.71;72.71;100509.06;8548777;33;20248;-71
2021/09/16 19:20:52;;;;;;;3.85;2.30;;;;;;;14.78;72.88;100520.97;8545096;33;20135;-70
2021/09/16 19:26:00;;;;;;;7.70;3.03;;;;;;;14.87;72.88;100519.25;8548949;33;20624;-73
2021/09/16 19:31:07;;;;;;;5.13;3.08;;;;;;;14.80;72.83;100527.09;8569271;33;20217;-73
2021/09/16 19:36:13;;;;;;;3.60;2.40;;;;;;;14.86;72.95;100528.34;8545937;33;20224;-70
2021/09/16 19:41:21;;;;;;;6.45;2.40;;;;;;;14.97;72.67;100531.72;8550013;33;20201;-71
2021/09/16 19:46:25;;;;;;;4.70;2.45;;;;;;;14.80;73.21;100527.94;8552449;33;20326;-71
2021/09/16 19:51:54;;;;;;;3.65;2.42;;;;;;;14.93;72.82;100532.19;8570680;33;20763;-71
2021/09/16 19:57:05;;;;;;;3.83;2.88;;;;;;;14.75;72.73;100535.66;8564413;33;20225;-71
2021/09/16 20:02:16;;;;;;;4.30;2.70;;;;;;;14.65;73.55;100537.56;8550676;33;20154;-71
2021/09/16 20:07:27;;;;;;;4.25;2.35;;;;;;;14.81;73.44;100539.63;8550279;33;20714;-71
2021/09/16 20:12:36;;;;;;;5.32;2.65;;;;;;;14.82;73.35;100535.94;8541632;33;20860;-71
2021/09/16 20:17:41;;;;;;;4.28;2.97;;;;;;;14.79;73.46;100538.94;8563278;33;20193;-72
2021/09/16 20:22:44;;;;;;;6.43;3.13;;;;;;;14.72;73.91;100535.09;8551148;33;20220;-70
2021/09/16 20:27:49;;;;;;;4.10;2.80;;;;;;;14.75;73.95;100541.06;8552334;33;20238;-70
2021/09/16 20:32:52;;;;;;;5.45;3.92;;;;;;;14.62;74.51;100540.56;8550843;33;20192;-72
2021/09/16 20:37:55;;;;;;;4.35;3.53;;;;;;;14.71;74.18;100546.94;8547261;33;20158;-72
2021/09/16 20:43:00;;;;;;;4.43;3.13;;;;;;;14.58;74.21;100547.25;8546976;33;20213;-71
2021/09/16 20:48:03;;;;;;;5.10;2.97;;;;;;;14.56;73.82;100541.13;8546862;33;21492;-72
2021/09/16 20:53:07;;;;;;;6.28;3.00;;;;;;;14.69;73.62;100538.09;8547895;33;20142;-72
2021/09/16 20:58:11;;;;;;;5.57;2.67;;;;;;;14.60;73.36;100542.53;8546919;33;20224;-72
2021/09/16 21:03:14;;;;;;;2.97;2.53;;;;;;;14.57;73.77;100557.19;8547242;33;20718;-72
2021/09/16 21:08:18;;;;;;;3.75;3.15;;;;;;;14.48;73.37;100546.41;8547912;33;20186;-72
2021/09/16 21:13:23;;;;;;;4.88;3.08;;;;;;;14.52;73.31;100551.38;8545922;33;21347;-71
2021/09/16 21:18:26;;;;;;;4.05;2.85;;;;;;;14.43;73.37;100556.81;8565225;33;20212;-72
2021/09/16 21:23:29;;;;;;;4.03;2.63;;;;;;;14.16;74.09;100553.81;8547212;33;21529;-72
2021/09/16 21:28:34;;;;;;;4.05;3.17;;;;;;;14.02;74.68;100556.13;8544340;33;20225;-74
2021/09/16 21:33:37;;;;;;;4.90;3.20;;;;;;;13.94;74.92;100560.38;8544812;33;20248;-72
2021/09/16 21:38:40;;;;;;;4.10;2.85;;;;;;;13.58;76.06;100570.00;8544170;33;20213;-72
2021/09/16 21:43:45;;;;;;;3.65;3.05;;;;;;;13.66;76.02;100569.31;8544251;33;20196;-72
2021/09/16 21:48:48;;;;;;;4.53;3.17;;;;;;;13.56;75.79;100572.00;8544001;33;20292;-73
2021/09/16 21:53:51;;;;;;;5.45;3.65;;;;;;;13.40;76.37;100559.03;8543378;33;20320;-72
2021/09/16 21:58:55;;;;;;;5.85;3.70;;;;;;;13.21;77.39;100557.09;8543411;33;21519;-72
2021/09/16 22:03:58;;;;;;;5.40;3.70;;;;;;;13.27;77.13;100564.66;8543099;33;20627;-72
2021/09/16 22:09:02;;;;;;;6.82;3.47;;;;;;;13.13;77.59;100566.88;8544042;33;20869;-72
2021/09/16 22:14:07;;;;;;;4.28;3.53;;;;;;;13.08;77.99;100569.97;8543222;33;20193;-72
2021/09/16 22:19:10;;;;;;;6.30;4.25;;;;;;;12.89;78.87;100575.28;8543421;33;20219;-72
2021/09/16 22:24:14;;;;;;;7.70;4.25;;;;;;;12.80;79.24;100585.03;8542905;33;20182;-72
2021/09/16 22:29:18;;;;;;;4.60;4.00;;;;;;;12.78;79.34;100585.19;8542815;33;20185;-71
2021/09/16 22:34:21;;;;;;;7.53;4.30;;;;;;;12.71;79.34;100584.00;8542679;33;20536;-72
2021/09/16 22:39:24;;;;;;;6.18;4.68;;;;;;;12.62;80.02;100586.66;8543835;33;20954;-71
2021/09/16 22:44:29;;;;;;;7.43;5.07;;;;;;;12.50;80.65;100593.94;8543853;33;20221;-72
2021/09/16 22:49:32;;;;;;;8.35;5.15;;;;;;;12.42;80.88;100591.03;8543231;33;20194;-72
2021/09/16 22:54:35;;;;;;;7.10;5.20;;;;;;;12.31;81.26;100602.72;8547114;33;20280;-72
2021/09/16 22:59:39;;;;;;;7.15;4.85;;;;;;;12.27;81.24;100593.19;8547305;33;20244;-72
2021/09/16 23:04:42;;;;;;;7.70;5.60;;;;;;;12.34;81.27;100592.56;8547821;33;20582;-71
2021/09/16 23:09:45;;;;;;;9.98;6.38;;;;;;;12.35;81.02;100580.78;8547155;33;20182;-71
2021/09/16 23:14:51;;;;;;;11.55;5.90;;;;;;;12.30;81.39;100579.47;8545894;33;20441;-71
2021/09/16 23:19:55;;;;;;;10.75;6.43;;;;;;;12.28;81.37;100584.09;8547831;33;20314;-71
2021/09/16 23:24:58;;;;;;;7.32;5.55;;;;;;;12.19;81.79;100571.44;8546283;33;20641;-73
2021/09/16 23:30:04;;;;;;;9.73;6.68;;;;;;;12.06;82.04;100577.84;8546870;34;20284;-72
2021/09/16 23:35:08;;;;;;;10.57;6.85;;;;;;;11.95;82.37;100565.28;8546055;34;20328;-72